sensor_id;sensor_type;location;lat;lon;timestamp;pressure;altitude;pressure_sealevel;temperature;humidity
42811;BME280;28457;55.680;37.656;2023-01-29T00:00:23;100178.34;;;0.48;70.59
42811;BME280;28457;55.680;37.656;2023-01-29T00:02:52;100174.03;;;0.47;69.99
42811;BME280;28457;55.680;37.656;2023-01-29T00:05:20;100166.91;;;0.48;69.68
42811;BME280;28457;55.680;37.656;2023-01-29T00:07:54;100166.78;;;0.50;69.44
42811;BME280;28457;55.680;37.656;2023-01-29T00:10:22;100173.06;;;0.48;67.72
42811;BME280;28457;55.680;37.656;2023-01-29T00:12:50;100165.00;;;0.50;68.69
42811;BME280;28457;55.680;37.656;2023-01-29T00:15:18;100169.44;;;0.50;68.48
42811;BME280;28457;55.680;37.656;2023-01-29T00:17:47;100166.78;;;0.50;68.41
42811;BME280;28457;55.680;37.656;2023-01-29T00:20:16;100168.50;;;0.51;68.03
42811;BME280;28457;55.680;37.656;2023-01-29T00:22:45;100170.19;;;0.52;68.10
42811;BME280;28457;55.680;37.656;2023-01-29T00:25:13;100163.91;;;0.53;67.98
42811;BME280;28457;55.680;37.656;2023-01-29T00:27:41;100157.75;;;0.52;68.33
42811;BME280;28457;55.680;37.656;2023-01-29T00:30:10;100158.72;;;0.51;67.78
42811;BME280;28457;55.680;37.656;2023-01-29T00:32:38;100152.69;;;0.49;68.03
42811;BME280;28457;55.680;37.656;2023-01-29T00:35:07;100150.88;;;0.50;68.19
42811;BME280;28457;55.680;37.656;2023-01-29T00:37:37;100155.13;;;0.52;67.83
42811;BME280;28457;55.680;37.656;2023-01-29T00:40:05;100150.56;;;0.54;67.66
42811;BME280;28457;55.680;37.656;2023-01-29T00:42:34;100147.16;;;0.52;67.15
42811;BME280;28457;55.680;37.656;2023-01-29T00:45:31;100147.16;;;0.52;67.55
42811;BME280;28457;55.680;37.656;2023-01-29T00:47:59;100145.25;;;0.54;67.71
42811;BME280;28457;55.680;37.656;2023-01-29T00:50:27;100144.41;;;0.54;67.79
42811;BME280;28457;55.680;37.656;2023-01-29T00:52:57;100138.13;;;0.55;67.79
42811;BME280;28457;55.680;37.656;2023-01-29T00:55:25;100125.72;;;0.55;67.17
42811;BME280;28457;55.680;37.656;2023-01-29T00:57:53;100132.09;;;0.53;66.94
42811;BME280;28457;55.680;37.656;2023-01-29T01:00:21;100132.94;;;0.53;67.25
42811;BME280;28457;55.680;37.656;2023-01-29T01:02:54;100132.00;;;0.54;67.29
42811;BME280;28457;55.680;37.656;2023-01-29T01:05:33;100145.94;;;0.56;67.67
42811;BME280;28457;55.680;37.656;2023-01-29T01:08:04;100131.75;;;0.57;67.56
42811;BME280;28457;55.680;37.656;2023-01-29T01:11:00;100128.25;;;0.57;67.25
42811;BME280;28457;55.680;37.656;2023-01-29T01:13:27;100137.28;;;0.54;67.26
42811;BME280;28457;55.680;37.656;2023-01-29T01:15:55;100130.41;;;0.52;67.75
42811;BME280;28457;55.680;37.656;2023-01-29T01:18:24;100134.66;;;0.54;67.58
42811;BME280;28457;55.680;37.656;2023-01-29T01:20:55;100134.66;;;0.54;67.54
42811;BME280;28457;55.680;37.656;2023-01-29T01:23:26;100134.50;;;0.56;67.57
42811;BME280;28457;55.680;37.656;2023-01-29T01:25:54;100134.75;;;0.53;67.10
42811;BME280;28457;55.680;37.656;2023-01-29T01:28:22;100141.75;;;0.54;67.16
42811;BME280;28457;55.680;37.656;2023-01-29T01:30:50;100140.88;;;0.53;67.21
42811;BME280;28457;55.680;37.656;2023-01-29T01:33:18;100141.88;;;0.52;66.73
42811;BME280;28457;55.680;37.656;2023-01-29T01:35:47;100147.16;;;0.52;66.80
42811;BME280;28457;55.680;37.656;2023-01-29T01:38:15;100146.31;;;0.52;66.27
42811;BME280;28457;55.680;37.656;2023-01-29T01:40:45;100141.16;;;0.50;65.67
42811;BME280;28457;55.680;37.656;2023-01-29T01:43:13;100139.44;;;0.49;65.26
42811;BME280;28457;55.680;37.656;2023-01-29T01:45:41;100142.09;;;0.49;65.76
42811;BME280;28457;55.680;37.656;2023-01-29T01:48:14;100134.50;;;0.44;64.50
42811;BME280;28457;55.680;37.656;2023-01-29T01:50:44;100124.88;;;0.43;64.96
42811;BME280;28457;55.680;37.656;2023-01-29T01:53:13;100123.91;;;0.44;65.06
42811;BME280;28457;55.680;37.656;2023-01-29T01:55:43;100121.28;;;0.44;64.47
42811;BME280;28457;55.680;37.656;2023-01-29T01:58:16;100131.63;;;0.36;62.76
42811;BME280;28457;55.680;37.656;2023-01-29T02:00:45;100130.06;;;0.34;62.58
42811;BME280;28457;55.680;37.656;2023-01-29T02:03:13;100117.88;;;0.31;62.94
42811;BME280;28457;55.680;37.656;2023-01-29T02:05:58;100119.69;;;0.31;62.91
42811;BME280;28457;55.680;37.656;2023-01-29T02:08:47;100109.09;;;0.31;63.17
42811;BME280;28457;55.680;37.656;2023-01-29T02:11:34;100116.81;;;0.34;63.24
42811;BME280;28457;55.680;37.656;2023-01-29T02:14:04;100106.56;;;0.29;63.06
42811;BME280;28457;55.680;37.656;2023-01-29T02:16:33;100099.34;;;0.31;62.99
42811;BME280;28457;55.680;37.656;2023-01-29T02:19:02;100094.41;;;0.27;62.91
42811;BME280;28457;55.680;37.656;2023-01-29T02:21:39;100105.00;;;0.27;63.20
42811;BME280;28457;55.680;37.656;2023-01-29T02:24:19;100096.31;;;0.24;63.02
42811;BME280;28457;55.680;37.656;2023-01-29T02:26:52;100094.78;;;0.22;63.05
42811;BME280;28457;55.680;37.656;2023-01-29T02:29:26;100090.53;;;0.19;62.22
42811;BME280;28457;55.680;37.656;2023-01-29T02:32:03;100080.94;;;0.18;62.05
42811;BME280;28457;55.680;37.656;2023-01-29T02:34:35;100086.47;;;0.15;62.54
42811;BME280;28457;55.680;37.656;2023-01-29T02:37:24;100077.91;;;0.12;61.98
42811;BME280;28457;55.680;37.656;2023-01-29T02:39:56;100079.22;;;0.06;61.01
42811;BME280;28457;55.680;37.656;2023-01-29T02:42:31;100070.56;;;0.04;61.63
42811;BME280;28457;55.680;37.656;2023-01-29T02:45:05;100068.84;;;0.03;61.82
42811;BME280;28457;55.680;37.656;2023-01-29T02:47:39;100064.16;;;0.07;62.20
42811;BME280;28457;55.680;37.656;2023-01-29T02:50:12;100059.59;;;0.09;61.74
42811;BME280;28457;55.680;37.656;2023-01-29T02:52:44;100049.84;;;0.09;61.56
42811;BME280;28457;55.680;37.656;2023-01-29T02:55:17;100046.22;;;0.10;61.78
42811;BME280;28457;55.680;37.656;2023-01-29T02:57:48;100057.69;;;0.11;61.65
42811;BME280;28457;55.680;37.656;2023-01-29T03:00:20;100046.97;;;0.12;61.12
42811;BME280;28457;55.680;37.656;2023-01-29T03:02:51;100042.63;;;0.11;60.52
42811;BME280;28457;55.680;37.656;2023-01-29T03:05:23;100043.34;;;0.02;59.76
42811;BME280;28457;55.680;37.656;2023-01-29T03:07:52;100040.94;;;-0.01;60.39
42811;BME280;28457;55.680;37.656;2023-01-29T03:10:31;100037.34;;;0.00;59.97
42811;BME280;28457;55.680;37.656;2023-01-29T03:13:02;100027.69;;;-0.01;59.91
42811;BME280;28457;55.680;37.656;2023-01-29T03:15:37;100024.09;;;0.00;60.12
42811;BME280;28457;55.680;37.656;2023-01-29T03:18:28;100024.09;;;0.00;60.25
42811;BME280;28457;55.680;37.656;2023-01-29T03:21:02;100027.59;;;0.01;60.14
42811;BME280;28457;55.680;37.656;2023-01-29T03:23:53;100010.72;;;0.02;60.52
42811;BME280;28457;55.680;37.656;2023-01-29T03:26:39;100019.50;;;0.02;60.49
42811;BME280;28457;55.680;37.656;2023-01-29T03:29:31;100011.47;;;0.04;60.28
42811;BME280;28457;55.680;37.656;2023-01-29T03:32:23;100010.59;;;0.03;60.19
42811;BME280;28457;55.680;37.656;2023-01-29T03:34:53;100000.00;;;0.03;59.82
42811;BME280;28457;55.680;37.656;2023-01-29T03:37:27;99987.59;;;-0.08;59.47
42811;BME280;28457;55.680;37.656;2023-01-29T03:39:57;99987.13;;;-0.13;59.52
42811;BME280;28457;55.680;37.656;2023-01-29T03:42:25;99986.16;;;-0.12;59.24
42811;BME280;28457;55.680;37.656;2023-01-29T03:44:57;99983.41;;;-0.10;59.31
42811;BME280;28457;55.680;37.656;2023-01-29T03:47:37;99975.22;;;-0.07;59.39
42811;BME280;28457;55.680;37.656;2023-01-29T03:50:10;99974.13;;;-0.05;59.80
42811;BME280;28457;55.680;37.656;2023-01-29T03:52:43;99965.34;;;-0.05;59.21
42811;BME280;28457;55.680;37.656;2023-01-29T03:55:14;99962.94;;;-0.08;59.00
42811;BME280;28457;55.680;37.656;2023-01-29T03:57:44;99964.28;;;-0.14;59.60
42811;BME280;28457;55.680;37.656;2023-01-29T04:00:20;99966.56;;;-0.20;59.04
42811;BME280;28457;55.680;37.656;2023-01-29T04:03:04;99953.19;;;-0.19;59.47
42811;BME280;28457;55.680;37.656;2023-01-29T04:05:36;99945.25;;;-0.19;59.19
42811;BME280;28457;55.680;37.656;2023-01-29T04:08:22;99938.16;;;-0.18;59.20
42811;BME280;28457;55.680;37.656;2023-01-29T04:13:20;99935.03;;;-0.23;59.59
42811;BME280;28457;55.680;37.656;2023-01-29T04:15:52;99945.88;;;-0.27;59.61
42811;BME280;28457;55.680;37.656;2023-01-29T04:18:44;99935.03;;;-0.35;60.25
42811;BME280;28457;55.680;37.656;2023-01-29T04:21:13;99933.84;;;-0.42;60.57
42811;BME280;28457;55.680;37.656;2023-01-29T04:23:42;99934.22;;;-0.35;60.94
42811;BME280;28457;55.680;37.656;2023-01-29T04:26:23;99939.13;;;-0.31;60.43
42811;BME280;28457;55.680;37.656;2023-01-29T04:28:55;99935.28;;;-0.38;60.53
42811;BME280;28457;55.680;37.656;2023-01-29T04:31:27;99935.16;;;-0.36;60.02
42811;BME280;28457;55.680;37.656;2023-01-29T04:34:03;99932.41;;;-0.35;60.23
42811;BME280;28457;55.680;37.656;2023-01-29T04:36:37;99929.63;;;-0.33;60.43
42811;BME280;28457;55.680;37.656;2023-01-29T04:39:09;99927.09;;;-0.35;60.18
42811;BME280;28457;55.680;37.656;2023-01-29T04:41:41;99920.72;;;-0.32;61.02
42811;BME280;28457;55.680;37.656;2023-01-29T04:44:13;99921.56;;;-0.32;60.38
42811;BME280;28457;55.680;37.656;2023-01-29T04:46:45;99931.28;;;-0.32;60.17
42811;BME280;28457;55.680;37.656;2023-01-29T04:49:18;99921.91;;;-0.36;60.09
42811;BME280;28457;55.680;37.656;2023-01-29T04:51:53;99921.22;;;-0.38;60.31
42811;BME280;28457;55.680;37.656;2023-01-29T04:54:27;99916.84;;;-0.39;60.38
42811;BME280;28457;55.680;37.656;2023-01-29T04:57:00;99916.75;;;-0.38;61.04
42811;BME280;28457;55.680;37.656;2023-01-29T04:59:31;99924.31;;;-0.33;61.31
42811;BME280;28457;55.680;37.656;2023-01-29T05:02:00;99921.44;;;-0.30;61.31
42811;BME280;28457;55.680;37.656;2023-01-29T05:04:30;99905.56;;;-0.30;61.38
42811;BME280;28457;55.680;37.656;2023-01-29T05:07:01;99903.38;;;-0.25;61.43
42811;BME280;28457;55.680;37.656;2023-01-29T05:09:30;99894.59;;;-0.26;61.38
42811;BME280;28457;55.680;37.656;2023-01-29T05:11:59;99905.44;;;-0.29;60.85
42811;BME280;28457;55.680;37.656;2023-01-29T05:14:27;99905.78;;;-0.33;61.25
42811;BME280;28457;55.680;37.656;2023-01-29T05:16:59;99907.75;;;-0.35;61.03
42811;BME280;28457;55.680;37.656;2023-01-29T05:19:30;99901.25;;;-0.31;60.92
42811;BME280;28457;55.680;37.656;2023-01-29T05:21:58;99907.13;;;-0.39;61.62
42811;BME280;28457;55.680;37.656;2023-01-29T05:24:27;99910.25;;;-0.34;61.07
42811;BME280;28457;55.680;37.656;2023-01-29T05:26:55;99914.34;;;-0.30;61.42
42811;BME280;28457;55.680;37.656;2023-01-29T05:29:41;99911.69;;;-0.30;61.28
42811;BME280;28457;55.680;37.656;2023-01-29T05:32:11;99915.31;;;-0.31;61.13
42811;BME280;28457;55.680;37.656;2023-01-29T05:34:41;99918.78;;;-0.30;61.17
42811;BME280;28457;55.680;37.656;2023-01-29T05:37:09;99914.84;;;-0.25;61.33
42811;BME280;28457;55.680;37.656;2023-01-29T05:39:37;99910.38;;;-0.24;60.92
42811;BME280;28457;55.680;37.656;2023-01-29T05:42:05;99903.28;;;-0.23;60.92
42811;BME280;28457;55.680;37.656;2023-01-29T05:44:33;99902.69;;;-0.27;61.07
42811;BME280;28457;55.680;37.656;2023-01-29T05:47:01;99912.28;;;-0.26;60.69
42811;BME280;28457;55.680;37.656;2023-01-29T05:49:30;99914.22;;;-0.28;61.58
42811;BME280;28457;55.680;37.656;2023-01-29T05:51:59;99915.19;;;-0.29;61.49
42811;BME280;28457;55.680;37.656;2023-01-29T05:54:27;99914.47;;;-0.31;62.07
42811;BME280;28457;55.680;37.656;2023-01-29T05:56:55;99912.28;;;-0.26;62.20
42811;BME280;28457;55.680;37.656;2023-01-29T05:59:23;99908.22;;;-0.30;61.80
42811;BME280;28457;55.680;37.656;2023-01-29T06:01:51;99906.28;;;-0.28;61.79
42811;BME280;28457;55.680;37.656;2023-01-29T06:04:19;99910.63;;;-0.27;62.65
42811;BME280;28457;55.680;37.656;2023-01-29T06:06:47;99914.22;;;-0.28;62.15
42811;BME280;28457;55.680;37.656;2023-01-29T06:09:17;99916.63;;;-0.25;61.93
42811;BME280;28457;55.680;37.656;2023-01-29T06:11:45;99911.91;;;-0.21;62.04
42811;BME280;28457;55.680;37.656;2023-01-29T06:14:13;99912.66;;;-0.19;61.93
42811;BME280;28457;55.680;37.656;2023-01-29T06:16:41;99919.53;;;-0.28;61.75
42811;BME280;28457;55.680;37.656;2023-01-29T06:19:09;99924.56;;;-0.36;61.59
42811;BME280;28457;55.680;37.656;2023-01-29T06:21:37;99920.00;;;-0.34;61.93
42811;BME280;28457;55.680;37.656;2023-01-29T06:24:05;99914.94;;;-0.49;61.82
42811;BME280;28457;55.680;37.656;2023-01-29T06:26:35;99914.34;;;-0.52;62.44
42811;BME280;28457;55.680;37.656;2023-01-29T06:29:03;99910.63;;;-0.50;62.23
42811;BME280;28457;55.680;37.656;2023-01-29T06:31:31;99905.06;;;-0.46;62.27
42811;BME280;28457;55.680;37.656;2023-01-29T06:34:04;99898.09;;;-0.47;62.44
42811;BME280;28457;55.680;37.656;2023-01-29T06:36:33;99897.88;;;-0.44;61.97
42811;BME280;28457;55.680;37.656;2023-01-29T06:39:01;99899.44;;;-0.42;62.63
42811;BME280;28457;55.680;37.656;2023-01-29T06:41:29;99893.78;;;-0.37;62.36
42811;BME280;28457;55.680;37.656;2023-01-29T06:43:59;99893.31;;;-0.42;61.73
42811;BME280;28457;55.680;37.656;2023-01-29T06:46:27;99894.75;;;-0.38;62.22
42811;BME280;28457;55.680;37.656;2023-01-29T06:48:56;99899.91;;;-0.37;61.82
42811;BME280;28457;55.680;37.656;2023-01-29T06:51:24;99897.50;;;-0.40;61.81
42811;BME280;28457;55.680;37.656;2023-01-29T06:53:53;99900.97;;;-0.39;61.92
42811;BME280;28457;55.680;37.656;2023-01-29T06:56:22;99888.03;;;-0.42;62.21
42811;BME280;28457;55.680;37.656;2023-01-29T06:58:50;99882.81;;;-0.44;62.72
42811;BME280;28457;55.680;37.656;2023-01-29T07:01:19;99884.50;;;-0.43;61.74
42811;BME280;28457;55.680;37.656;2023-01-29T07:04:00;99871.16;;;-0.41;63.17
42811;BME280;28457;55.680;37.656;2023-01-29T07:06:29;99871.03;;;-0.40;62.72
42811;BME280;28457;55.680;37.656;2023-01-29T07:08:57;99866.47;;;-0.38;62.92
42811;BME280;28457;55.680;37.656;2023-01-29T07:11:25;99858.03;;;-0.43;62.39
42811;BME280;28457;55.680;37.656;2023-01-29T07:13:53;99854.47;;;-0.42;62.30
42811;BME280;28457;55.680;37.656;2023-01-29T07:16:23;99857.81;;;-0.40;62.40
42811;BME280;28457;55.680;37.656;2023-01-29T07:18:52;99863.94;;;-0.39;62.77
42811;BME280;28457;55.680;37.656;2023-01-29T07:21:20;99868.97;;;-0.36;62.78
42811;BME280;28457;55.680;37.656;2023-01-29T07:23:48;99857.94;;;-0.41;62.54
42811;BME280;28457;55.680;37.656;2023-01-29T07:26:16;99860.09;;;-0.35;62.22
42811;BME280;28457;55.680;37.656;2023-01-29T07:28:44;99861.41;;;-0.30;62.00
42811;BME280;28457;55.680;37.656;2023-01-29T07:31:12;99859.50;;;-0.28;61.73
42811;BME280;28457;55.680;37.656;2023-01-29T07:33:43;99859.84;;;-0.32;61.64
42811;BME280;28457;55.680;37.656;2023-01-29T07:36:11;99864.88;;;-0.29;61.98
42811;BME280;28457;55.680;37.656;2023-01-29T07:38:39;99866.22;;;-0.23;61.58
42811;BME280;28457;55.680;37.656;2023-01-29T07:41:08;99855.38;;;-0.20;61.90
42811;BME280;28457;55.680;37.656;2023-01-29T07:43:36;99857.44;;;-0.24;61.85
42811;BME280;28457;55.680;37.656;2023-01-29T07:46:04;99860.78;;;-0.22;62.09
42811;BME280;28457;55.680;37.656;2023-01-29T07:48:32;99856.22;;;-0.20;62.80
42811;BME280;28457;55.680;37.656;2023-01-29T07:51:02;99861.63;;;-0.21;62.34
42811;BME280;28457;55.680;37.656;2023-01-29T07:53:30;99848.19;;;-0.30;62.26
42811;BME280;28457;55.680;37.656;2023-01-29T07:55:58;99857.78;;;-0.29;62.12
42811;BME280;28457;55.680;37.656;2023-01-29T07:58:26;99848.41;;;-0.33;62.41
42811;BME280;28457;55.680;37.656;2023-01-29T08:00:54;99835.06;;;-0.31;61.81
42811;BME280;28457;55.680;37.656;2023-01-29T08:03:22;99840.13;;;-0.39;62.64
42811;BME280;28457;55.680;37.656;2023-01-29T08:05:50;99832.31;;;-0.41;62.12
42811;BME280;28457;55.680;37.656;2023-01-29T08:08:20;99838.91;;;-0.46;62.19
42811;BME280;28457;55.680;37.656;2023-01-29T08:10:48;99825.09;;;-0.50;63.09
42811;BME280;28457;55.680;37.656;2023-01-29T08:13:16;99826.81;;;-0.60;63.18
42811;BME280;28457;55.680;37.656;2023-01-29T08:15:44;99825.72;;;-0.58;63.24
42811;BME280;28457;55.680;37.656;2023-01-29T08:18:12;99824.88;;;-0.58;62.61
42811;BME280;28457;55.680;37.656;2023-01-29T08:20:41;99818.16;;;-0.62;62.21
42811;BME280;28457;55.680;37.656;2023-01-29T08:23:10;99815.97;;;-0.57;62.60
42811;BME280;28457;55.680;37.656;2023-01-29T08:25:41;99812.13;;;-0.53;62.54
42811;BME280;28457;55.680;37.656;2023-01-29T08:28:09;99811.16;;;-0.52;62.33
42811;BME280;28457;55.680;37.656;2023-01-29T08:30:38;99806.84;;;-0.53;62.17
42811;BME280;28457;55.680;37.656;2023-01-29T08:33:06;99814.06;;;-0.55;61.41
42811;BME280;28457;55.680;37.656;2023-01-29T08:35:34;99811.41;;;-0.55;61.02
42811;BME280;28457;55.680;37.656;2023-01-29T08:38:03;99817.53;;;-0.55;60.69
42811;BME280;28457;55.680;37.656;2023-01-29T08:40:32;99805.97;;;-0.54;61.06
42811;BME280;28457;55.680;37.656;2023-01-29T08:43:03;99811.28;;;-0.42;61.71
42811;BME280;28457;55.680;37.656;2023-01-29T08:45:35;99816.19;;;-0.38;61.54
42811;BME280;28457;55.680;37.656;2023-01-29T08:48:03;99813.16;;;-0.33;61.11
42811;BME280;28457;55.680;37.656;2023-01-29T08:50:31;99814.00;;;-0.33;60.79
42811;BME280;28457;55.680;37.656;2023-01-29T08:53:01;99812.69;;;-0.27;60.09
42811;BME280;28457;55.680;37.656;2023-01-29T08:55:29;99813.66;;;-0.28;60.12
42811;BME280;28457;55.680;37.656;2023-01-29T08:57:57;99808.97;;;-0.25;60.01
42811;BME280;28457;55.680;37.656;2023-01-29T09:00:26;99796.19;;;-0.19;59.75
42811;BME280;28457;55.680;37.656;2023-01-29T09:02:54;99804.38;;;-0.22;59.49
42811;BME280;28457;55.680;37.656;2023-01-29T09:05:22;99799.81;;;-0.20;59.95
42811;BME280;28457;55.680;37.656;2023-01-29T09:07:50;99793.19;;;-0.26;59.91
42811;BME280;28457;55.680;37.656;2023-01-29T09:10:19;99794.28;;;-0.29;59.63
42811;BME280;28457;55.680;37.656;2023-01-29T09:12:47;99792.59;;;-0.30;59.38
42811;BME280;28457;55.680;37.656;2023-01-29T09:15:16;99786.09;;;-0.26;59.33
42811;BME280;28457;55.680;37.656;2023-01-29T09:17:46;99782.97;;;-0.31;58.99
42811;BME280;28457;55.680;37.656;2023-01-29T09:20:15;99788.88;;;-0.27;59.67
42811;BME280;28457;55.680;37.656;2023-01-29T09:22:43;99785.97;;;-0.24;59.50
42811;BME280;28457;55.680;37.656;2023-01-29T09:25:11;99781.38;;;-0.22;59.50
42811;BME280;28457;55.680;37.656;2023-01-29T09:27:40;99782.81;;;-0.18;59.16
42811;BME280;28457;55.680;37.656;2023-01-29T09:30:09;99779.72;;;-0.23;58.79
42811;BME280;28457;55.680;37.656;2023-01-29T09:32:37;99782.81;;;-0.18;59.69
42811;BME280;28457;55.680;37.656;2023-01-29T09:35:22;99774.53;;;-0.13;58.39
42811;BME280;28457;55.680;37.656;2023-01-29T09:37:50;99763.84;;;-0.23;58.24
42811;BME280;28457;55.680;37.656;2023-01-29T09:40:22;99756.72;;;-0.22;58.85
42811;BME280;28457;55.680;37.656;2023-01-29T09:42:53;99758.19;;;-0.30;58.71
42811;BME280;28457;55.680;37.656;2023-01-29T09:45:22;99756.13;;;-0.26;59.21
42811;BME280;28457;55.680;37.656;2023-01-29T09:47:51;99747.22;;;-0.25;59.31
42811;BME280;28457;55.680;37.656;2023-01-29T09:50:21;99749.06;;;-0.37;59.27
42811;BME280;28457;55.680;37.656;2023-01-29T09:52:52;99750.88;;;-0.37;58.99
42811;BME280;28457;55.680;37.656;2023-01-29T09:55:24;99749.56;;;-0.32;59.36
42811;BME280;28457;55.680;37.656;2023-01-29T09:57:53;99750.59;;;-0.23;59.54
42811;BME280;28457;55.680;37.656;2023-01-29T10:00:23;99739.88;;;-0.21;59.83
42811;BME280;28457;55.680;37.656;2023-01-29T10:02:58;99743.09;;;-0.18;59.24
42811;BME280;28457;55.680;37.656;2023-01-29T10:05:41;99728.53;;;-0.12;59.88
42811;BME280;28457;55.680;37.656;2023-01-29T10:11:06;99730.00;;;-0.19;59.05
42811;BME280;28457;55.680;37.656;2023-01-29T10:13:39;99722.31;;;-0.22;59.44
42811;BME280;28457;55.680;37.656;2023-01-29T10:16:17;99717.03;;;-0.22;59.54
42811;BME280;28457;55.680;37.656;2023-01-29T10:18:58;99712.22;;;-0.29;59.27
42811;BME280;28457;55.680;37.656;2023-01-29T10:21:34;99715.25;;;-0.33;59.91
42811;BME280;28457;55.680;37.656;2023-01-29T10:24:08;99699.34;;;-0.22;59.30
42811;BME280;28457;55.680;37.656;2023-01-29T10:26:41;99702.22;;;-0.25;59.44
42811;BME280;28457;55.680;37.656;2023-01-29T10:29:09;99696.81;;;-0.23;59.45
42811;BME280;28457;55.680;37.656;2023-01-29T10:31:43;99677.91;;;-0.19;59.32
42811;BME280;28457;55.680;37.656;2023-01-29T10:34:13;99678.88;;;-0.20;59.53
42811;BME280;28457;55.680;37.656;2023-01-29T10:36:44;99656.28;;;-0.24;59.43
42811;BME280;28457;55.680;37.656;2023-01-29T10:39:14;99661.09;;;-0.29;60.25
42811;BME280;28457;55.680;37.656;2023-01-29T10:41:51;99655.16;;;-0.21;60.27
42811;BME280;28457;55.680;37.656;2023-01-29T10:44:28;99656.28;;;-0.24;59.53
42811;BME280;28457;55.680;37.656;2023-01-29T10:47:03;99642.41;;;-0.16;59.88
42811;BME280;28457;55.680;37.656;2023-01-29T10:49:37;99648.84;;;-0.30;59.89
42811;BME280;28457;55.680;37.656;2023-01-29T10:52:10;99631.88;;;-0.28;60.02
42811;BME280;28457;55.680;37.656;2023-01-29T10:54:44;99630.25;;;-0.19;59.55
42811;BME280;28457;55.680;37.656;2023-01-29T10:57:17;99633.31;;;-0.23;60.06
42811;BME280;28457;55.680;37.656;2023-01-29T10:59:56;99632.22;;;-0.21;59.82
42811;BME280;28457;55.680;37.656;2023-01-29T11:02:30;99632.66;;;-0.16;60.31
42811;BME280;28457;55.680;37.656;2023-01-29T11:04:58;99627.50;;;-0.17;59.90
42811;BME280;28457;55.680;37.656;2023-01-29T11:07:26;99619.75;;;-0.09;59.71
42811;BME280;28457;55.680;37.656;2023-01-29T11:09:59;99621.56;;;-0.10;60.66
42811;BME280;28457;55.680;37.656;2023-01-29T11:12:31;99611.09;;;-0.11;60.02
42811;BME280;28457;55.680;37.656;2023-01-29T11:15:01;99610.13;;;-0.10;59.93
42811;BME280;28457;55.680;37.656;2023-01-29T11:17:31;99607.34;;;-0.09;59.97
42811;BME280;28457;55.680;37.656;2023-01-29T11:19:59;99609.16;;;-0.09;60.06
42811;BME280;28457;55.680;37.656;2023-01-29T11:22:28;99607.94;;;-0.05;59.87
42811;BME280;28457;55.680;37.656;2023-01-29T11:25:07;99606.69;;;-0.01;59.93
42811;BME280;28457;55.680;37.656;2023-01-29T11:27:41;99605.75;;;0.00;59.96
42811;BME280;28457;55.680;37.656;2023-01-29T11:30:21;99595.00;;;0.02;59.73
42811;BME280;28457;55.680;37.656;2023-01-29T11:32:51;99593.34;;;0.01;59.84
42811;BME280;28457;55.680;37.656;2023-01-29T11:35:23;99603.38;;;0.07;59.98
42811;BME280;28457;55.680;37.656;2023-01-29T11:37:52;99606.03;;;0.07;59.36
42811;BME280;28457;55.680;37.656;2023-01-29T11:40:34;99601.59;;;0.07;59.86
42811;BME280;28457;55.680;37.656;2023-01-29T11:43:17;99594.19;;;0.01;59.80
42811;BME280;28457;55.680;37.656;2023-01-29T11:45:46;99587.91;;;0.02;59.72
42811;BME280;28457;55.680;37.656;2023-01-29T11:48:15;99594.88;;;0.03;59.65
42811;BME280;28457;55.680;37.656;2023-01-29T11:50:49;99582.94;;;0.09;59.93
42811;BME280;28457;55.680;37.656;2023-01-29T11:53:22;99585.44;;;0.10;59.77
42811;BME280;28457;55.680;37.656;2023-01-29T11:55:51;99572.03;;;0.02;59.85
42811;BME280;28457;55.680;37.656;2023-01-29T11:58:25;99579.97;;;0.02;60.25
42811;BME280;28457;55.680;37.656;2023-01-29T12:00:55;99580.94;;;0.01;60.10
42811;BME280;28457;55.680;37.656;2023-01-29T12:03:27;99583.28;;;-0.06;60.04
42811;BME280;28457;55.680;37.656;2023-01-29T12:05:57;99582.28;;;-0.05;60.50
42811;BME280;28457;55.680;37.656;2023-01-29T12:08:27;99579.84;;;0.04;60.29
42811;BME280;28457;55.680;37.656;2023-01-29T12:11:05;99573.88;;;0.11;60.67
42811;BME280;28457;55.680;37.656;2023-01-29T12:13:36;99560.66;;;0.11;59.81
42811;BME280;28457;55.680;37.656;2023-01-29T12:16:09;99566.38;;;0.16;60.14
42811;BME280;28457;55.680;37.656;2023-01-29T12:18:38;99583.69;;;0.20;60.38
42811;BME280;28457;55.680;37.656;2023-01-29T12:21:10;99582.16;;;0.18;60.02
42811;BME280;28457;55.680;37.656;2023-01-29T12:23:43;99573.75;;;0.13;60.25
42811;BME280;28457;55.680;37.656;2023-01-29T12:26:15;99574.47;;;0.15;60.47
42811;BME280;28457;55.680;37.656;2023-01-29T12:28:49;99566.25;;;0.18;60.13
42811;BME280;28457;55.680;37.656;2023-01-29T12:31:23;99561.22;;;0.15;60.53
42811;BME280;28457;55.680;37.656;2023-01-29T12:33:54;99565.03;;;0.22;61.02
42811;BME280;28457;55.680;37.656;2023-01-29T12:36:24;99559.31;;;0.27;60.82
42811;BME280;28457;55.680;37.656;2023-01-29T12:38:53;99568.09;;;0.27;60.58
42811;BME280;28457;55.680;37.656;2023-01-29T12:41:24;99564.75;;;0.25;60.32
42811;BME280;28457;55.680;37.656;2023-01-29T12:43:56;99570.63;;;0.29;60.42
42811;BME280;28457;55.680;37.656;2023-01-29T12:46:28;99563.63;;;0.28;60.50
42811;BME280;28457;55.680;37.656;2023-01-29T12:48:59;99574.63;;;0.23;60.94
42811;BME280;28457;55.680;37.656;2023-01-29T12:51:30;99563.16;;;0.13;61.06
42811;BME280;28457;55.680;37.656;2023-01-29T12:54:02;99565.41;;;0.17;61.37
42811;BME280;28457;55.680;37.656;2023-01-29T12:56:33;99556.97;;;0.03;61.59
42811;BME280;28457;55.680;37.656;2023-01-29T12:59:08;99570.53;;;0.09;61.67
42811;BME280;28457;55.680;37.656;2023-01-29T13:01:41;99570.97;;;0.14;61.46
42811;BME280;28457;55.680;37.656;2023-01-29T13:04:12;99568.72;;;0.10;61.46
42811;BME280;28457;55.680;37.656;2023-01-29T13:06:43;99565.63;;;0.05;61.80
42811;BME280;28457;55.680;37.656;2023-01-29T13:09:14;99565.31;;;-0.02;62.00
42811;BME280;28457;55.680;37.656;2023-01-29T13:11:44;99557.19;;;-0.10;62.03
42811;BME280;28457;55.680;37.656;2023-01-29T13:14:19;99555.13;;;-0.07;62.54
42811;BME280;28457;55.680;37.656;2023-01-29T13:16:49;99546.78;;;-0.02;62.42